Burns Pinion Ridge Reserve, California Weather observations

Data are for 10 minute period ending at time listed.
 Day   Time   Solar   Ave.   Ave.  Ave.  Vector  Max.   Baro.   Total    
  of    of     Rad.   Air    Rel.  Wind   Wind   Wind  Press.  Precip.   
Year   Day            Temp.  Hum.  Speed  Dir.   Gust                    
2016   (PST)  Kw/m2    F      %     mph   deg.    mph    mb.     in.     
-------------------------------------------------------------------------
 242    0:10   0.00   70.1    24    2.1   314     3.6   878.3    0.00 
 242    0:20   0.00   68.6    25    3.1   302     5.2   878.3    0.00 
 242    0:30   0.00   68.2    26    3.3   298     4.8   878.2    0.00 
 242    0:40   0.00   68.5    25    1.3     1     3.4   878.2    0.00 
 242    0:50   0.00   68.3    25    1.2    55     2.7   878.2    0.00 
 242    1:00   0.00   68.1    25    1.0   331     3.5   878.1    0.00 
 242    1:10   0.00   67.1    26    1.0   314     2.5   878.1    0.00 
 242    1:20   0.00   66.6    27    3.2   300     5.0   878.1    0.00 
 242    1:30   0.00   67.7    26    2.3   312     5.0   878.1    0.00 
 242    1:40   0.00   67.9    26    3.2   298     5.1   878.1    0.00 
 242    1:50   0.00   68.3    25    4.5   300     7.8   878.1    0.00 
 242    2:00   0.00   71.5    23    5.0   293     6.9   878.0    0.00 
 242    2:10   0.00   71.0    23    4.6   303     8.2   877.9    0.00 
 242    2:20   0.00   69.8    24    3.4   313     4.6   877.9    0.00 
 242    2:30   0.00   68.2    26    2.8   302     4.5   877.9    0.00 
 242    2:40   0.00   66.7    27    1.4   300     3.4   877.8    0.00 
 242    2:50   0.00   65.7    27    1.5   308     2.8   877.8    0.00 
 242    3:00   0.00   65.0    28    1.4   309     4.0   877.8    0.00 
 242    3:10   0.00   64.5    28    0.3   351     1.2   877.8    0.00 
 242    3:20   0.00   64.3    28    0.4   102     1.1   877.8    0.00 
 242    3:30   0.00   64.5    28    0.2   190     1.1   877.8    0.00 
 242    3:40   0.00   63.7    29    0.2   261     1.3   877.7    0.00 
 242    3:50   0.00   62.6    30    1.4   312     2.4   877.7    0.00 
 242    4:00   0.00   63.3    29    1.4   307     2.7   877.6    0.00 
 242    4:10   0.00   64.1    28    3.0   300     5.6   877.6    0.00 
 242    4:20   0.00   66.6    25    4.1   308     6.5   877.7    0.00 
 242    4:30   0.00   67.5    24    3.7   304     5.7   877.7    0.00 
 242    4:40   0.00   67.7    24    4.0   306     5.6   877.7    0.00 
 242    4:50   0.00   67.6    24    3.7   302     5.4   877.8    0.00 
 242    5:00   0.00   67.4    24    4.3   302     5.9   877.9    0.00 
 242    5:10   0.00   68.0    24    3.5   301     6.0   877.9    0.00 
 242    5:20   0.00   67.7    24    2.6   301     4.5   878.0    0.00 
 242    5:30   0.01   67.3    24    1.3   294     2.8   878.1    0.00 
 242    5:40   0.01   66.3    25    2.4   296     3.8   878.1    0.00 
 242    5:50   0.02   67.1    24    1.8   291     3.5   878.2    0.00 
 242    6:00   0.03   67.4    24    1.3    82     3.0   878.3    0.00 
 242    6:10   0.04   69.9    22    3.1    58     4.9   878.4    0.00 
 242    6:20   0.13   75.2    18    1.8   358     4.2   878.5    0.00 
 242    6:30   0.17   79.4    15    3.1    37     5.6   878.5    0.00 
 242    6:40   0.20   82.2    14    3.0    54     5.1   878.7    0.00 
 242    6:50   0.24   82.4    14    3.0    49     4.8   879.0    0.00 
 242    7:00   0.28   83.7    14    2.4    64     4.1   879.2    0.00 
 242    7:10   0.31   84.8    13    2.3    54     4.3   879.4    0.00 
 242    7:20   0.35   85.7    13    1.6    46     4.0   879.4    0.00 
 242    7:30   0.39   87.4    12    2.7    44     5.3   879.6    0.00 
 242    7:40   0.42   87.4    12    3.1    38     6.1   879.7    0.00 
 242    7:50   0.46   88.6    12    3.8    20     8.0   879.7    0.00 
 242    8:00   0.49   87.2    13    5.2    53     9.1   879.8    0.00 
 242    8:10   0.53   87.3    12    5.5    45    10.0   879.8    0.00 
 242    8:20   0.56   87.3    13    5.3    47     9.1   879.8    0.00 
 242    8:30   0.59   87.8    13    4.9    44    10.2   879.7    0.00 
 242    8:40   0.62   89.0    13    4.2    49     8.6   879.8    0.00 
 242    8:50   0.66   88.6    13    4.3    51     8.5   879.8    0.00 
 242    9:00   0.68   89.3    13    3.5    54     7.5   879.7    0.00 
 242    9:10   0.71   89.4    13    4.4    76     8.8   879.6    0.00 
 242    9:20   0.74   88.7    13    4.2    41     9.1   879.6    0.00 
 242    9:30   0.76   89.6    13    4.3    41     9.0   879.5    0.00 
 242    9:40   0.79   89.3    14    4.4    84    10.2   879.5    0.00 
 242    9:50   0.81   89.1    14    4.4    66     9.7   879.4    0.00 
 242   10:00   0.83   90.1    13    3.9    64     8.0   879.4    0.00 
 242   10:10   0.85   90.0    13    3.0    74     9.9   879.3    0.00 
 242   10:20   0.87   91.1    13    4.5    97    11.2   879.3    0.00 
 242   10:30   0.88   90.6    13    6.1    67    12.7   879.2    0.00 
 242   10:40   0.89   90.9    13    4.2    36     9.2   879.2    0.00 
 242   10:50   0.91   90.9    13    5.4    74    12.7   879.1    0.00 
 242   11:00   0.92   90.1    13    4.0    98    10.7   879.0    0.00 
 242   11:10   0.93   91.8    12    5.7    90    11.0   878.9    0.00 
 242   11:20   0.94   91.6    12    4.1    74    10.9   878.9    0.00 
 242   11:30   0.94   92.4    12    4.0    58    10.9   878.9    0.00 
 242   11:40   0.94   91.9    12    5.3    75    11.7   878.8    0.00 
 242   11:50   0.94   91.5    12    3.2   102    10.7   878.7    0.00 
 242   12:00   0.92   91.8    12    4.8   103    10.0   878.6    0.00 
 242   12:10   0.94   92.4    12    3.8    63     9.9   878.6    0.00 
 242   12:20   0.94   93.4    12    4.5    37     9.3   878.5    0.00 
 242   12:30   0.93   92.5    12    5.8   110    13.6   878.5    0.00 
 242   12:40   0.92   92.2    12    4.3    90    11.2   878.4    0.00 
 242   12:50   0.91   92.4    12    6.0   108    11.4   878.2    0.00 
 242   13:00   0.91   92.9    12    5.9    69    13.7   878.2    0.00 
 242   13:10   0.89   92.9    12    3.4     9    10.1   878.0    0.00 
 242   13:20   0.87   94.4    11    5.0    43    11.7   877.9    0.00 
 242   13:30   0.72   92.5    12    6.4    63    14.5   877.8    0.00 
 242   13:40   0.84   92.8    12    3.8    53    10.2   877.7    0.00 
 242   13:50   0.82   93.4    11    5.2    60    12.7   877.5    0.00 
 242   14:00   0.79   95.0    11    4.2     4    12.3   877.3    0.00 
 242   14:10   0.77   93.4    10    9.5   119    16.5   877.3    0.00 
 242   14:20   0.76   93.6    10    8.0   131    15.5   877.2    0.00 
 242   14:30   0.73   93.1    10    8.3   122    17.2   877.2    0.00 
 242   14:40   0.70   93.5    11    2.7   107     8.9   877.0    0.00 
 242   14:50   0.67   93.4    10    6.4   103    13.3   876.9    0.00 
 242   15:00   0.64   93.5    10    3.6   113     8.8   876.9    0.00 
 242   15:10   0.61   94.2    10    4.2    41    10.1   876.8    0.00 
 242   15:20   0.58   94.1    10    3.5   142    10.9   876.7    0.00 
 242   15:30   0.55   95.2    10    4.0   155    10.8   876.6    0.00 
 242   15:40   0.52   94.6    10    4.6   109     8.5   876.5    0.00 
 242   15:50   0.48   94.3    10    3.8   107     9.4   876.5    0.00 
 242   16:00   0.44   93.1    10    5.6    72    16.4   876.5    0.00 
 242   16:10   0.41   93.3    10    3.6   328     7.9   876.5    0.00 
 242   16:20   0.37   93.5    10    4.8    48    14.4   876.4    0.00 
 242   16:30   0.33   93.8    10    4.9    31    10.1   876.3    0.00 
 242   16:40   0.30   93.2    10    5.6   129    11.0   876.3    0.00 
 242   16:50   0.26   93.0    10    4.5    74     9.3   876.3    0.00 
 242   17:00   0.23   92.7    10    3.7   123     8.2   876.3    0.00 
 242   17:10   0.19   92.7    10    4.1   125     8.8   876.3    0.00 
 242   17:20   0.15   92.8    10    3.7   129     8.0   876.3    0.00 
 242   17:30   0.12   91.9    11    3.1   111     6.1   876.3    0.00 
 242   17:40   0.09   91.2    11    3.8   116     6.9   876.3    0.00 
 242   17:50   0.06   89.7    12    4.2   118     7.2   876.4    0.00 
 242   18:00   0.03   89.2    12    2.5    98     7.4   876.4    0.00 
 242   18:10   0.01   87.4    13    3.1   108     6.5   876.6    0.00 
 242   18:20   0.00   86.4    13    2.8   117     4.4   876.6    0.00 
 242   18:30   0.00   85.5    13    3.0   116     5.6   876.7    0.00 
 242   18:40   0.00   83.8    14    2.9   126     4.2   876.8    0.00 
 242   18:50   0.00   81.6    15    2.2   137     3.2   876.8    0.00 
 242   19:00   0.00   79.3    16    1.7   140     2.1   876.9    0.00 
 242   19:10   0.00   77.8    17    1.4   152     2.0   875.1    0.00 
 242   19:20   0.00   76.9    17    1.3   153     1.8   877.0    0.00 
 242   19:30   0.00   76.6    18    2.3   168     3.4   877.1    0.00 
 242   19:40   0.00   77.0    17    2.2   187     3.4   877.1    0.00 
 242   19:50   0.00   76.4    18    2.6   178     4.0   877.2    0.00 
 242   20:00   0.00   75.8    18    1.6   183     2.6   877.3    0.00 
 242   20:10   0.00   74.4    19    0.7   287     2.0   877.3    0.00 
 242   20:20   0.00   73.8    19    2.0   249     3.0   877.3    0.00 
 242   20:30   0.00   72.8    20    1.5   244     2.1   877.4    0.00 
 242   20:40   0.00   73.0    20    2.0   239     2.8   877.4    0.00 
 242   20:50   0.00   72.4    20    2.0   240     3.4   877.3    0.00 
 242   21:00   0.00   72.2    21    1.8   273     2.4   877.3    0.00 
 242   21:10   0.00   72.2    21    1.5   241     2.0   877.2    0.00 
 242   21:20   0.00   72.1    21    2.1   246     3.3   877.2    0.00 
 242   21:30   0.00   73.1    20    2.8   262     3.9   877.2    0.00 
 242   21:40   0.00   74.7    18    2.3   257     3.4   877.2    0.00 
 242   21:50   0.00   74.1    19    2.0   255     2.4   877.2    0.00 
 242   22:00   0.00   72.8    20    1.9   265     2.6   877.1    0.00 
 242   22:10   0.00   72.4    20    1.7   251     2.8   877.1    0.00 
 242   22:20   0.00   72.3    20    2.2   258     3.4   877.0    0.00 
 242   22:30   0.00   72.5    20    1.7   219     2.8   877.0    0.00 
 242   22:40   0.00   72.9    20    2.6   199     3.9   876.9    0.00 
 242   22:50   0.00   71.8    20    2.9   279     4.7   876.9    0.00 
 242   23:00   0.00   72.4    20    2.2   267     2.7   876.9    0.00 
 242   23:10   100.00  99999.0   99999  99999.0   99999   99999.0   99999.0   99999.00 
 242   23:20   100.00  99999.0   99999  99999.0   99999   99999.0   99999.0   99999.00 
 242   23:30   100.00  99999.0   99999  99999.0   99999   99999.0   99999.0   99999.00 
 242   23:40   100.00  99999.0   99999  99999.0   99999   99999.0   99999.0   99999.00 
 242   23:50   100.00  99999.0   99999  99999.0   99999   99999.0   99999.0   99999.00 
 243    0:00   0.00   71.9    20    2.0   315     4.7   876.7    0.00 

Return to Burns Pinion Ridge Reserve graphs page.


Western Regional Climate Center,wrcc@dri.edu